METAR pasados CEF4 · Airdrie Airport

A continuación puedes ver los METAR de los últimos días. Selecciona un año para ver los METAR más antiguos, desde el año 2007 en adelante.

4 de diciembre de 2022

Hora Código Tiempo Temp. Visibilidad Cielo nuboso Viento METAR/SPECI
16:00
M
-3 °C 15 mi 2.400 ft 030° 030° 10 kt METAR CYYC 042300Z 03010KT 15SM OVC024 M03/M07 A2992 RMK SC8 SLP186
15:00
M
-2 °C 15 mi 2.500 ft 020° 020° 9 kt METAR CYYC 042200Z 02009KT 15SM BKN025 BKN190 M02/M06 A2992 RMK SC7AC1 AC TR SLP181
14:00
V
-1 °C 40 mi - 360° 360° 7 kt METAR CYYC 042100Z 36007KT 40SM FEW021 SCT190 SCT300 M01/M06 A2991 RMK SC2AC1CI1 AC TR SLP175
13:00
V
-1 °C 40 mi - 360° 360° 13 - 19 kt METAR CYYC 042000Z 36013G19KT 40SM FEW022 FEW190 FEW300 M01/M06 A2992 RMK CU1AC1CI1 AC TR SLP189
12:21
V
-1 °C 40 mi - 010° 010° 10 kt METAR CYYC 041921Z 01010KT 280V060 40SM FEW020 FEW190 FEW300 M01/M06 A2993 RMK CU1AC1CI1 CU TR CI TR WSHFT 1912 SLP191
12:00
V
-2 °C 40 mi - 180° 180° 3 kt METAR CYYC 041900Z 18003KT 170V250 40SM FEW190 FEW300 M02/M11 A2994 RMK AC1CI1 CI TR SLP197
11:00
V
0 °C 40 mi - 330° 330° 6 kt METAR CYYC 041800Z 33006KT 40SM FEW190 FEW300 M00/M09 A2994 RMK AC1CI1 AC TR CI TR SLP197
10:00
V
0 °C 40 mi - 320° 320° 8 kt METAR CYYC 041700Z 32008KT 40SM FEW190 M00/M09 A2994 RMK AC1 AC TR SLP199
09:00
V
-2 °C 40 mi - 330° 330° 9 kt METAR CYYC 041600Z 33009KT 40SM FEW190 M02/M10 A2993 RMK AC1 SLP205
08:00
V
-4 °C 40 mi - 340° 340° 8 kt METAR CYYC 041500Z 34008KT 40SM FEW190 M04/M13 A2991 RMK AC1 AC TR SLP198
07:00
V
-4 °C 15 mi - 220° 220° 3 kt METAR CYYC 041400Z 22003KT 200V300 15SM FEW220 M04/M14 A2990 RMK CI2 SLP191
06:00
V
-3 °C 15 mi - 310° 310° 6 kt METAR CYYC 041300Z 31006KT 15SM FEW220 M03/M14 A2988 RMK CI1 CI TR SLP185
05:00
V
-1 °C 15 mi - 320° 320° 19 - 24 kt METAR CYYC 041200Z 32019G24KT 15SM SKC M01/M14 A2987 RMK SLP178
04:00
V
-1 °C 15 mi - 350° 350° 13 kt METAR CYYC 041100Z 35013KT 15SM SKC M01/M14 A2987 RMK SLP175
03:00
V
1 °C 15 mi - 310° 310° 11 - 16 kt METAR CYYC 041000Z 31011G16KT 15SM SKC 01/M14 A2984 RMK SLP159
02:00
V
2 °C 15 mi - 290° 290° 22 - 30 kt METAR CYYC 040900Z 29022G30KT 15SM SKC 02/M15 A2984 RMK SLP149
01:39
V
1 °C 15 mi - 280° 280° 13 - 22 kt METAR CYYC 040839Z 28013G22KT 230V330 15SM FEW220 01/M16 A2985 RMK CI1 CI TR WSHFT 0825 SLP152
01:00
V
-5 °C 15 mi - 150° 150° 6 kt METAR CYYC 040800Z 15006KT 15SM SKC M05/M14 A2985 RMK SLP164
00:00
V
-5 °C 15 mi - 180° 180° 4 kt METAR CYYC 040700Z 18004KT 15SM FEW220 M05/M15 A2988 RMK CI1 CI TR SLP177

3 de diciembre de 2022

Hora Código Tiempo Temp. Visibilidad Cielo nuboso Viento METAR/SPECI
23:00
V
-7 °C 15 mi - 220° 220° 12 kt METAR CYYC 040600Z 22012KT 15SM SKC M07/M15 A2991 RMK SLP192
22:00
V
-8 °C 15 mi - 230° 230° 7 kt METAR CYYC 040500Z 23007KT 15SM SKC M08/M16 A2994 RMK SLP205
21:00
V
-13 °C 15 mi - 190° 190° 7 kt METAR CYYC 040400Z 19007KT 15SM SKC M13/M18 A2996 RMK CONTRAILS SLP219
20:00
V
-11 °C 15 mi - 170° 170° 4 kt METAR CYYC 040300Z 17004KT 15SM SKC M11/M18 A3000 RMK SLP232
19:00
V
-10 °C 15 mi - 150° 150° 3 kt METAR CYYC 040200Z 15003KT 140V220 15SM SKC M10/M17 A3000 RMK SLP245
18:00
V
-10 °C 15 mi - 200° 200° 7 kt METAR CYYC 040100Z 20007KT 15SM SKC M10/M16 A2999 RMK SLP247
17:00
V
-9 °C 15 mi - 200° 200° 5 kt METAR CYYC 040000Z 20005KT 15SM FEW040 FEW250 M09/M18 A3001 RMK CF1CI1 CF TR CI TR SLP248
16:00
V
-9 °C 20 mi - 020° 020° 5 kt METAR CYYC 032300Z 02005KT 20SM FEW040 FEW250 M09/M18 A3000 RMK CF1CI1 CF TR CI TR SLP247
15:00
V
-7 °C 30 mi - 040° 040° 10 - 15 kt METAR CYYC 032200Z 04010G15KT 30SM FEW040 FEW250 M07/M16 A2998 RMK SC1CI1 SC TR CI TR SLP235
14:00
V
0 °C 40 mi - 290° 290° 17 - 22 kt METAR CYYC 032100Z 29017G22KT 40SM FEW060 FEW080 FEW250 M00/M15 A2994 RMK SC1AC1CI1 SC TR AC TR CI TR AC LENT SLP211
13:00
V
-1 °C 40 mi - 280° 280° 16 kt METAR CYYC 032000Z 28016KT 40SM FEW058 FEW250 M01/M15 A2993 RMK CF1CI1 CF TR CI TR SLP210
12:00
V
-1 °C 40 mi - 280° 280° 16 - 25 kt METAR CYYC 031900Z 28016G25KT 40SM FEW056 FEW080 FEW250 M01/M16 A2993 RMK SC1AC1CI1 SC TR AC TR SLP212
11:00
V
-3 °C 40 mi - 280° 280° 14 - 25 kt METAR CYYC 031800Z 28014G25KT 40SM FEW052 FEW250 M03/M16 A2992 RMK SC1CI1 SC TR CI TR SLP211
10:00
V
-4 °C 40 mi - 280° 280° 15 - 22 kt METAR CYYC 031700Z 28015G22KT 40SM FEW048 FEW250 M04/M16 A2992 RMK SC1CI1 SC TR CI TR CONTRAILS SLP210
09:00
V
-5 °C 40 mi - 270° 270° 14 - 19 kt METAR CYYC 031600Z 27014G19KT 40SM FEW044 FEW180 FEW250 M05/M17 A2990 RMK SC1AC1CI1 SC TR AC TR CONTRAILS SLP207
08:00
V
-8 °C 30 mi - 260° 260° 7 kt METAR CYYC 031500Z 26007KT 220V290 30SM FEW040 FEW180 FEW250 M08/M17 A2990 RMK CU1AC1CI2 CU TR AC TR SLP210
07:00
V
-16 °C 15 mi - 180° 180° 4 kt METAR CYYC 031400Z 18004KT 15SM SKC M16/M21 A2990 RMK SLP219
06:00
V
-19 °C 15 mi - 190° 190° 8 kt METAR CYYC 031300Z 19008KT 15SM SKC M19/M23 A2989 RMK FROIN SLP220
05:00
V
-17 °C 15 mi - 220° 220° 7 kt METAR CYYC 031200Z 22007KT 15SM FEW180 M17/M23 A2990 RMK AC1 AC TR FROIN SLP222
04:00
V
-18 °C 10 mi 18.000 ft 230° 230° 8 kt METAR CYYC 031100Z 23008KT 10SM FEW110 BKN180 M18/M23 A2991 RMK AC2AC3 SLP226
03:00
V
-18 °C 10 mi 19.000 ft 210° 210° 5 kt METAR CYYC 031000Z 21005KT 10SM SCT110 BKN190 M18/M23 A2992 RMK AC3AC3 SLP228
02:00
V
-17 °C 10 mi 15.000 ft 190° 190° 5 kt METAR CYYC 030900Z 19005KT 10SM SCT110 BKN150 BKN180 M17/M22 A2993 RMK AC4AC1AS1 SLP232
01:00
V
-18 °C 10 mi 15.000 ft 180° 180° 4 kt METAR CYYC 030800Z 18004KT 10SM SCT110 BKN150 BKN180 M18/M22 A2993 RMK AC3AC2AS1 AS TR SLP234
00:00
V
-18 °C 15 mi 15.000 ft 190° 190° 6 kt METAR CYYC 030700Z 19006KT 15SM FEW090 FEW130 BKN150 BKN210 M18/M23 A2994 RMK AC1AC2AC3CI1 AC TR CI TR SLP238

2 de diciembre de 2022

Hora Código Tiempo Temp. Visibilidad Cielo nuboso Viento METAR/SPECI
23:00
V
-18 °C 15 mi 15.000 ft 170° 170° 5 kt METAR CYYC 030600Z 17005KT 15SM FEW110 BKN150 BKN210 M18/M23 A2995 RMK AC2AC3CI1 CI TR SLP241
22:00
V
-18 °C 15 mi 18.000 ft 190° 190° 5 kt METAR CYYC 030500Z 19005KT 15SM SCT120 BKN180 M18/M23 A2996 RMK AC4AS2 SLP247
21:00
V
-17 °C 15 mi 13.000 ft 190° 190° 6 kt METAR CYYC 030400Z 19006KT 15SM BKN130 M17/M22 A2997 RMK AC6 SLP252
20:00
V
-17 °C 15 mi 17.000 ft 160° 160° 6 kt METAR CYYC 030300Z 16006KT 15SM SCT110 BKN170 M17/M22 A2998 RMK AC4AS3 SLP258
19:00
V
-17 °C 15 mi 13.000 ft 150° 150° 5 kt METAR CYYC 030200Z 15005KT 15SM OVC130 M17/M22 A2999 RMK AC8 SLP261
18:00
V
-17 °C 15 mi 14.000 ft 150° 150° 4 kt METAR CYYC 030100Z 15004KT 15SM OVC140 M17/M23 A3000 RMK AC8 SLP268
17:00
V
-17 °C 15 mi 25.000 ft 130° 130° 7 kt METAR CYYC 030000Z 13007KT 15SM SCT120 BKN250 M17/M22 A3000 RMK AC3CI4 CONTRAILS SLP266
16:00
V
-16 °C 15 mi 10.000 ft 090° 090° 3 kt METAR CYYC 022300Z 09003KT 15SM BKN100 OVC250 M16/M23 A2999 RMK AC6CI2 AC LENT / CONTRAILS SLP262
15:00
V
-16 °C 20 mi 9.500 ft Var 000° 0 kt METAR CYYC 022200Z 00000KT 20SM SCT055 BKN095 OVC250 M16/M24 A2998 RMK SC4AC1CI3 SLP258
14:00
V
-16 °C 30 mi 25.000 ft Var 000° 0 kt METAR CYYC 022100Z 00000KT 30SM FEW052 FEW120 OVC250 M16/M23 A2997 RMK SC1AC1CI7 AC TR SLP255
13:00
V
-16 °C 30 mi 25.000 ft 200° 200° 3 kt METAR CYYC 022000Z 20003KT 30SM FEW054 FEW080 OVC250 M16/M24 A2998 RMK SC1AC1CS8 AC TR FAINT HALO SLP259
12:00
V
-17 °C 30 mi 25.000 ft 230° 230° 3 kt METAR CYYC 021900Z 23003KT 30SM FEW079 OVC250 M17/M23 A2997 RMK AC1CI8 AC TR CONTRAILS SLP256
11:00
V
-17 °C 40 mi 25.000 ft 330° 330° 9 kt METAR CYYC 021800Z 33009KT 40SM OVC250 M17/M24 A2998 RMK CI8 SLP259
10:00
V
-19 °C 40 mi 25.000 ft 320° 320° 7 kt METAR CYYC 021700Z 32007KT 40SM OVC250 M19/M25 A2996 RMK CI8 CONTRAILS SLP253
09:00
V
-21 °C 40 mi 25.000 ft 320° 320° 5 kt METAR CYYC 021600Z 32005KT 40SM OVC250 M21/M26 A2994 RMK CI8 CONTRAILS SLP249
08:00
V
-21 °C 20 mi - 300° 300° 4 kt METAR CYYC 021500Z 30004KT 20SM FEW250 M21/M26 A2991 RMK CI1 FROIN SLP241
07:00
V
-22 °C 15 mi - 310° 310° 3 kt METAR CYYC 021400Z 31003KT 15SM SKC M22/M26 A2989 RMK SLP235
06:00
V
-23 °C 15 mi - 320° 320° 4 kt METAR CYYC 021300Z 32004KT 15SM SKC M23/M27 A2987 RMK SLP230
05:00
V
-23 °C 15 mi - 340° 340° 5 kt METAR CYYC 021200Z 34005KT 15SM SKC M23/M27 A2984 RMK SLP218
04:00
V
-23 °C 15 mi - 320° 320° 3 kt METAR CYYC 021100Z 32003KT 15SM SKC M23/M27 A2982 RMK SLP212
03:00
V
-23 °C 15 mi - 330° 330° 4 kt METAR CYYC 021000Z 33004KT 320V090 15SM SKC M23/M27 A2981 RMK SLP204

Nosotros y terceros seguimos tu comportamiento en Internet en nuestro sitio web con cookies. Si continúas, asumimos que estás de acuerdo con nuestra Política de cookies.